Meteo Giornale » Osservazioni meteo Stati Uniti (USA) » Los Angeles

ore: 02:53 - Osservazioni Meteo Los Angeles
Lat. 33° 56' N Lon. 118° 23' W Alt. 38 metri s.l.m.

poco_nuvoloso America/Los_Angeles

11 °C

Poco Nuvoloso

Temp. 24 Ore

11 °C

23 °C

Est

11.1 Km/h

Dew point 7 °C

Umidità 76 %

Visibilità  10 Km

Il sole sorge alle ore 06:30

Il sole tramonta alle ore 16:48

Data e Ora Cielo e Fenomeni T °C DP °C Um. % Pres. hPa Vis. km Vento km/h
Oggi h: 02:53 poco_nuvoloso Poco Nuvoloso 11 7 76 1015 10 E 11.1
Oggi h: 01:53 poco_nuvoloso Poco Nuvoloso 11 9 87 1015 10 E 9.3
Oggi h: 00:53 poco_nuvoloso Poco Nuvoloso 13 11 87 1016 10 E/SE 9.3
Ieri h: 23:53 poco_nuvoloso Poco Nuvoloso 15 12 82 1016 10 N 0
Ieri h: 22:53 sereno Sereno 14 12 87 1016 10 E 9.3
Ieri h: 21:53 poco_nuvoloso Poco Nuvoloso 16 12 77 1016 10 N 5.5
Ieri h: 20:53 poco_nuvoloso Poco Nuvoloso 17 13 77 1016 10 N 0
Ieri h: 19:53 poco_nuvoloso Poco Nuvoloso 17 13 77 1016 10 O/SO 9.3
Ieri h: 18:53 poco_nuvoloso Poco Nuvoloso 17 12 72 1016 10 SO 7.4
Ieri h: 17:53 poco_nuvoloso Poco Nuvoloso 17 11 67 1015 10 O/SO 14.8
Ieri h: 16:53 poco_nuvoloso Poco Nuvoloso 18 9 55 1014 10 O 29.6
Ieri h: 15:53 poco_nuvoloso Poco Nuvoloso 20 7 42 1015 10 O 18.5
Ieri h: 14:53 poco_nuvoloso Poco Nuvoloso 20 11 56 1015 10 O 18.5
Ieri h: 13:53 molto_nuvoloso Molto Nuvoloso 22 6 35 1015 10 O 22.2
Ieri h: 12:53 molto_nuvoloso Molto Nuvoloso 22 7 37 1015 10 O 13
Ieri h: 11:53 molto_nuvoloso Molto Nuvoloso 22 6 35 1016 10 O 18.5
Ieri h: 10:53 nuvoloso Nuvoloso 23 -4 16 1017 10 N 0
Ieri h: 09:53 nuvoloso Nuvoloso 22 -3 18 1018 10 N 5.5
Ieri h: 08:53 nuvoloso Nuvoloso 20 -4 19 1018 10 N 11.1
Ieri h: 07:53 molto_nuvoloso Molto Nuvoloso 16 -5 23 1018 10 N 0
Ieri h: 06:53 poco_nuvoloso Poco Nuvoloso 14 -5 26 1018 10 NE 9.3
Ieri h: 05:53 poco_nuvoloso Poco Nuvoloso 14 -6 24 1018 10 N/NE 7.4
Ieri h: 04:53 sereno Sereno 14 -6 24 1017 10 N 5.5
Ieri h: 03:53 poco_nuvoloso Poco Nuvoloso 14 -4 28 1017 10 E/NE 7.4
Ieri h: 02:53 sereno Sereno 17 -5 21 1017 10 N 11.1